createdAt,value
2022-08-03T00:01:31.252Z,99678.34
2022-08-03T00:04:34.083Z,99680.26
2022-08-03T00:07:37.142Z,99685.73
2022-08-03T00:10:39.350Z,99683.27
2022-08-03T00:13:41.110Z,99682.17
2022-08-03T00:16:43.195Z,99680.33
2022-08-03T00:19:45.035Z,99684.90
2022-08-03T00:22:46.705Z,99686.54
2022-08-03T00:25:48.481Z,99687.35
2022-08-03T00:28:50.700Z,99688.70
2022-08-03T00:31:59.229Z,99687.17
2022-08-03T00:35:05.699Z,99690.31
2022-08-03T00:38:11.032Z,99691.08
2022-08-03T00:41:12.930Z,99689.08
2022-08-03T00:44:17.533Z,99691.17
2022-08-03T00:47:19.322Z,99693.38
2022-08-03T00:50:23.234Z,99694.89
2022-08-03T00:53:25.831Z,99690.96
2022-08-03T00:56:27.549Z,99688.39
2022-08-03T00:59:30.133Z,99690.46
2022-08-03T01:02:32.379Z,99688.36
2022-08-03T01:05:43.241Z,99688.75
2022-08-03T01:09:16.506Z,99688.44
2022-08-03T01:13:01.018Z,99689.19
2022-08-03T01:16:36.726Z,99691.27
2022-08-03T01:20:07.460Z,99687.70
2022-08-03T01:23:28.853Z,99692.78
2022-08-03T01:26:53.076Z,99691.23
2022-08-03T01:30:25.022Z,99690.86
2022-08-03T01:33:36.686Z,99690.95
2022-08-03T01:36:43.513Z,99689.98
2022-08-03T01:39:45.590Z,99689.73
2022-08-03T01:42:48.113Z,99689.88
2022-08-03T01:45:50.370Z,99687.52
2022-08-03T01:48:52.895Z,99685.34
2022-08-03T01:52:03.976Z,99679.27
2022-08-03T01:55:08.301Z,99680.55
2022-08-03T01:58:10.516Z,99678.88
2022-08-03T02:01:14.268Z,99679.65
2022-08-03T02:04:18.453Z,99679.48
2022-08-03T02:07:20.568Z,99679.98
2022-08-03T02:10:34.542Z,99679.49
2022-08-03T02:13:37.878Z,99674.59
2022-08-03T02:16:39.817Z,99675.61
2022-08-03T02:19:43.707Z,99675.96
2022-08-03T02:22:46.835Z,99676.09
2022-08-03T02:25:53.426Z,99678.02
2022-08-03T02:28:57.186Z,99677.05
2022-08-03T02:32:00.667Z,99675.23
2022-08-03T02:35:04.435Z,99674.45
2022-08-03T02:38:08.478Z,99678.64
2022-08-03T02:41:16.213Z,99678.60
2022-08-03T02:44:22.191Z,99673.04
2022-08-03T02:47:27.326Z,99674.17
2022-08-03T02:50:30.689Z,99669.46
2022-08-03T02:53:34.038Z,99669.19
2022-08-03T02:56:37.305Z,99673.55
2022-08-03T02:59:39.547Z,99674.95
2022-08-03T03:02:44.459Z,99674.20
2022-08-03T03:05:55.306Z,99682.80
2022-08-03T03:09:00.041Z,99680.53
2022-08-03T03:12:03.201Z,99681.26
2022-08-03T03:15:06.625Z,99682.48
2022-08-03T03:18:10.229Z,99684.05
2022-08-03T03:21:13.487Z,99683.31
2022-08-03T03:24:16.666Z,99685.79
2022-08-03T03:27:18.681Z,99684.49
2022-08-03T03:30:20.458Z,99683.64
2022-08-03T03:33:22.458Z,99682.95
2022-08-03T03:36:24.200Z,99687.72
2022-08-03T03:39:25.974Z,99692.01
2022-08-03T03:42:27.813Z,99695.73
2022-08-03T03:45:31.208Z,99695.33
2022-08-03T03:48:33.538Z,99697.20
2022-08-03T03:51:35.238Z,99697.42
2022-08-03T03:54:41.500Z,99699.70
2022-08-03T03:57:43.315Z,99705.88
2022-08-03T04:00:45.504Z,99708.13
2022-08-03T04:03:47.387Z,99710.14
2022-08-03T04:07:08.098Z,99715.77
2022-08-03T04:10:37.664Z,99718.84
2022-08-03T04:14:04.336Z,99720.77
2022-08-03T04:17:07.640Z,99721.37
2022-08-03T04:20:10.949Z,99724.61
2022-08-03T04:23:15.466Z,99723.07
2022-08-03T04:26:21.309Z,99719.52
2022-08-03T04:29:25.386Z,99729.83
2022-08-03T04:32:28.888Z,99730.86
2022-08-03T04:36:01.982Z,99738.39
2022-08-03T04:39:03.029Z,99741.04
2022-08-03T04:42:16.997Z,99741.41
2022-08-03T04:45:19.570Z,99742.41
2022-08-03T04:48:21.591Z,99745.23
2022-08-03T04:51:23.629Z,99747.08
2022-08-03T04:54:25.293Z,99743.43
2022-08-03T04:57:27.158Z,99740.55
2022-08-03T05:00:29.484Z,99743.66
2022-08-03T05:03:32.043Z,99747.98
2022-08-03T05:06:34.553Z,99745.28
2022-08-03T05:09:50.620Z,99746.64
2022-08-03T05:12:54.891Z,99745.14
2022-08-03T05:15:56.790Z,99742.49
2022-08-03T05:18:58.484Z,99740.02
2022-08-03T05:22:00.322Z,99740.26
2022-08-03T05:25:02.663Z,99743.41
2022-08-03T05:28:04.715Z,99741.10
2022-08-03T05:31:06.737Z,99744.23
2022-08-03T05:34:09.029Z,99747.53
2022-08-03T05:37:10.994Z,99747.55
2022-08-03T05:40:13.285Z,99750.42
2022-08-03T05:43:15.037Z,99755.60
2022-08-03T05:46:16.802Z,99751.67
2022-08-03T05:49:19.496Z,99751.57
2022-08-03T05:52:21.465Z,99749.05
2022-08-03T05:55:23.726Z,99749.73
2022-08-03T05:58:25.654Z,99749.84
2022-08-03T06:01:33.416Z,99743.36
2022-08-03T06:04:35.262Z,99743.13
2022-08-03T06:07:37.824Z,99746.71
2022-08-03T06:10:39.658Z,99748.62
2022-08-03T06:13:41.689Z,99751.77
2022-08-03T06:16:43.519Z,99746.02
2022-08-03T06:19:45.200Z,99747.92
2022-08-03T06:22:50.692Z,99743.94
2022-08-03T06:25:53.181Z,99745.77
2022-08-03T06:28:55.519Z,99749.16
2022-08-03T06:31:57.552Z,99745.84
2022-08-03T06:35:00.133Z,99741.51
2022-08-03T06:38:02.984Z,99741.04
2022-08-03T06:41:05.409Z,99736.66
2022-08-03T06:44:07.727Z,99738.91
2022-08-03T06:47:10.569Z,99742.00
2022-08-03T06:50:16.233Z,99744.92
2022-08-03T06:53:21.417Z,99746.67
2022-08-03T06:56:23.612Z,99747.36
2022-08-03T07:00:09.298Z,99745.27
2022-08-03T07:02:48.256Z,99747.56
2022-08-03T07:05:54.442Z,99749.70
2022-08-03T07:08:59.528Z,99750.23
2022-08-03T07:12:02.481Z,99748.92
2022-08-03T07:15:05.287Z,99747.27
2022-08-03T07:18:07.181Z,99746.41
2022-08-03T07:21:11.038Z,99750.50
2022-08-03T07:24:12.771Z,99751.23
2022-08-03T07:27:16.445Z,99749.35
2022-08-03T07:30:18.696Z,99752.39
2022-08-03T07:33:20.901Z,99749.88
2022-08-03T07:36:23.205Z,99747.45
2022-08-03T07:39:24.957Z,99751.59
2022-08-03T07:42:28.208Z,99749.38
2022-08-03T07:45:31.387Z,99746.73
2022-08-03T07:48:33.245Z,99749.73
2022-08-03T07:51:35.185Z,99749.15
2022-08-03T07:54:37.506Z,99750.48
2022-08-03T07:57:39.529Z,99753.42
2022-08-03T08:00:41.775Z,99748.64
2022-08-03T08:03:52.718Z,99744.52
2022-08-03T08:06:55.035Z,99749.55
2022-08-03T08:09:56.801Z,99752.14
2022-08-03T08:12:59.535Z,99753.11
2022-08-03T08:16:01.427Z,99750.40
2022-08-03T08:19:03.317Z,99752.67
2022-08-03T08:22:05.931Z,99752.46
2022-08-03T08:25:08.502Z,99753.52
2022-08-03T08:28:31.677Z,99752.88
2022-08-03T08:31:32.166Z,99756.95
2022-08-03T08:34:33.883Z,99755.93
2022-08-03T08:37:36.395Z,99758.52
2022-08-03T08:40:38.172Z,99755.35
2022-08-03T08:43:40.372Z,99758.66
2022-08-03T08:46:42.758Z,99756.90
2022-08-03T08:50:03.882Z,99756.11
2022-08-03T08:53:17.428Z,99760.80
2022-08-03T08:56:25.562Z,99763.38
2022-08-03T08:59:27.942Z,99760.63
2022-08-03T09:02:50.118Z,99760.69
2022-08-03T09:05:56.186Z,99759.66
2022-08-03T09:08:58.760Z,99755.87
2022-08-03T09:12:20.882Z,99750.80
2022-08-03T09:15:31.383Z,99752.01
2022-08-03T09:18:33.535Z,99752.01
2022-08-03T09:21:35.567Z,99746.06
2022-08-03T09:24:41.619Z,99745.33
2022-08-03T09:27:45.447Z,99743.92
2022-08-03T09:30:58.983Z,99743.07
2022-08-03T09:34:05.187Z,99742.91
2022-08-03T09:37:15.109Z,99741.59
2022-08-03T09:40:34.458Z,99739.70
2022-08-03T09:43:46.337Z,99738.11
2022-08-03T09:46:58.128Z,99734.61
2022-08-03T09:50:02.373Z,99736.02
2022-08-03T09:53:04.257Z,99731.30
2022-08-03T09:56:35.118Z,99736.95
2022-08-03T09:59:29.935Z,99740.51
2022-08-03T10:02:31.802Z,99737.52
2022-08-03T10:05:33.811Z,99740.83
2022-08-03T10:08:35.775Z,99741.06
2022-08-03T10:11:42.068Z,99740.66
2022-08-03T10:14:45.849Z,99737.42
2022-08-03T10:17:47.666Z,99731.05
2022-08-03T10:20:53.205Z,99729.09
2022-08-03T10:23:56.078Z,99731.02
2022-08-03T10:27:03.787Z,99728.39
2022-08-03T10:30:11.275Z,99723.84
2022-08-03T10:33:50.668Z,99725.51
2022-08-03T10:36:44.042Z,99724.47
2022-08-03T10:39:54.872Z,99725.46
2022-08-03T10:43:02.424Z,99724.23
2022-08-03T10:46:07.437Z,99725.89
2022-08-03T10:49:10.324Z,99726.23
2022-08-03T10:52:33.680Z,99725.29
2022-08-03T10:55:58.301Z,99719.55
2022-08-03T10:59:00.439Z,99716.81
2022-08-03T11:02:08.511Z,99710.15
2022-08-03T11:05:30.473Z,99706.39
2022-08-03T11:08:35.353Z,99705.95
2022-08-03T11:11:38.316Z,99706.27
2022-08-03T11:14:48.330Z,99701.21
2022-08-03T11:18:11.183Z,99697.11
2022-08-03T11:21:13.400Z,99696.27
2022-08-03T11:24:37.159Z,99694.64
2022-08-03T11:27:38.908Z,99695.95
2022-08-03T11:30:41.324Z,99694.31
2022-08-03T11:34:04.634Z,99694.78
2022-08-03T11:37:21.524Z,99694.26
2022-08-03T11:40:46.495Z,99685.56
2022-08-03T11:43:48.471Z,99680.24
2022-08-03T11:46:50.498Z,99679.55
2022-08-03T11:49:55.211Z,99674.62
2022-08-03T11:52:57.147Z,99673.85
2022-08-03T11:56:00.405Z,99670.86
2022-08-03T11:59:20.269Z,99668.23
2022-08-03T12:02:23.352Z,99666.30
2022-08-03T12:05:35.243Z,99672.13
2022-08-03T12:08:37.318Z,99670.63
2022-08-03T12:11:39.422Z,99663.63
2022-08-03T12:14:58.576Z,99661.46
2022-08-03T12:18:03.256Z,99659.52
2022-08-03T12:21:09.878Z,99654.52
2022-08-03T12:24:12.392Z,99654.77
2022-08-03T12:27:25.117Z,99653.57
2022-08-03T12:30:26.875Z,99651.39
2022-08-03T12:33:28.783Z,99644.83
2022-08-03T12:36:33.345Z,99642.66
2022-08-03T12:39:35.306Z,99638.86
2022-08-03T12:42:39.113Z,99643.22
2022-08-03T12:45:41.310Z,99639.11
2022-08-03T12:49:00.314Z,99635.20
2022-08-03T12:52:07.278Z,99633.14
2022-08-03T12:55:20.532Z,99630.76
2022-08-03T12:58:34.551Z,99625.40
2022-08-03T13:01:37.430Z,99629.60
2022-08-03T13:04:39.238Z,99625.60
2022-08-03T13:07:46.082Z,99620.05
2022-08-03T13:10:48.426Z,99618.36
2022-08-03T13:13:51.904Z,99616.50
2022-08-03T13:16:53.716Z,99609.60
2022-08-03T13:19:56.342Z,99609.86
2022-08-03T13:23:00.938Z,99607.23
2022-08-03T13:26:02.947Z,99611.51
2022-08-03T13:29:04.695Z,99609.64
2022-08-03T13:32:07.825Z,99608.48
2022-08-03T13:35:10.371Z,99609.14
2022-08-03T13:38:12.440Z,99607.08
2022-08-03T13:41:17.135Z,99608.33
2022-08-03T13:44:29.802Z,99606.46
2022-08-03T13:47:32.109Z,99604.50
2022-08-03T13:50:34.001Z,99603.36
2022-08-03T13:53:36.235Z,99604.16
2022-08-03T13:56:38.085Z,99604.13
2022-08-03T13:59:40.009Z,99599.13
2022-08-03T14:02:42.444Z,99598.14
2022-08-03T14:05:44.363Z,99597.77
2022-08-03T14:08:46.244Z,99597.35
2022-08-03T14:12:06.882Z,99592.89
2022-08-03T14:15:10.181Z,99592.86
2022-08-03T14:18:15.923Z,99591.27
2022-08-03T14:21:29.797Z,99590.61
2022-08-03T14:24:31.966Z,99591.70
2022-08-03T14:27:33.711Z,99591.38
2022-08-03T14:30:35.946Z,99591.35
2022-08-03T14:33:37.701Z,99584.96
2022-08-03T14:36:39.674Z,99583.63
2022-08-03T14:43:03.161Z,99577.64
2022-08-03T14:46:07.079Z,99575.10
2022-08-03T14:50:33.121Z,99570.20
2022-08-03T14:52:31.440Z,99567.06
2022-08-03T14:55:38.388Z,99568.40
2022-08-03T14:58:41.355Z,99570.23
2022-08-03T15:02:02.856Z,99571.08
2022-08-03T15:05:05.325Z,99567.57
2022-08-03T15:08:09.328Z,99566.35
2022-08-03T15:11:11.606Z,99566.20
2022-08-03T15:14:14.734Z,99575.31
2022-08-03T15:17:16.644Z,99570.36
2022-08-03T15:20:28.957Z,99565.42
2022-08-03T15:23:38.400Z,99562.07
2022-08-03T15:26:41.841Z,99560.13
2022-08-03T15:30:07.213Z,99557.66
2022-08-03T15:33:06.641Z,99561.29
2022-08-03T15:36:08.461Z,99557.67
2022-08-03T15:39:10.315Z,99553.23
2022-08-03T15:42:12.248Z,99558.70
2022-08-03T15:45:14.057Z,99558.69
2022-08-03T15:48:20.519Z,99556.90
2022-08-03T15:51:29.869Z,99555.82
2022-08-03T15:54:31.830Z,99550.32
2022-08-03T15:57:34.340Z,99549.61
2022-08-03T16:00:57.481Z,99549.98
2022-08-03T16:03:59.228Z,99551.66
2022-08-03T16:07:01.041Z,99548.09
2022-08-03T16:10:03.117Z,99546.42
2022-08-03T16:13:04.854Z,99544.61
2022-08-03T16:16:06.761Z,99542.66
2022-08-03T16:19:08.528Z,99540.35
2022-08-03T16:22:10.309Z,99539.08
2022-08-03T16:25:16.709Z,99531.83
2022-08-03T16:28:19.211Z,99531.73
2022-08-03T16:31:22.437Z,99527.91
2022-08-03T16:34:24.251Z,99524.90
2022-08-03T16:37:51.833Z,99531.92
2022-08-03T16:40:51.984Z,99526.97
2022-08-03T16:43:54.416Z,99530.44
2022-08-03T16:46:56.511Z,99531.40
2022-08-03T16:50:00.431Z,99534.61
2022-08-03T16:53:09.248Z,99535.33
2022-08-03T16:56:11.499Z,99538.39
2022-08-03T16:59:13.378Z,99535.99
2022-08-03T17:02:26.212Z,99534.51
2022-08-03T17:05:47.974Z,99534.83
2022-08-03T17:08:55.312Z,99535.27
2022-08-03T17:11:57.509Z,99539.59
2022-08-03T17:14:59.352Z,99541.64
2022-08-03T17:18:08.654Z,99541.98
2022-08-03T17:21:11.399Z,99540.83
2022-08-03T17:24:34.955Z,99541.27
2022-08-03T17:28:49.608Z,99545.89
2022-08-03T17:31:23.507Z,99546.96
2022-08-03T17:34:33.299Z,99552.52
2022-08-03T17:37:58.015Z,99554.48
2022-08-03T17:40:57.546Z,99554.99
2022-08-03T17:44:15.703Z,99557.91
2022-08-03T17:47:23.400Z,99560.19
2022-08-03T17:50:40.364Z,99562.39
2022-08-03T17:53:54.227Z,99568.64
2022-08-03T17:57:06.330Z,99569.95
2022-08-03T18:00:54.403Z,99571.44
2022-08-03T18:04:10.695Z,99572.60
2022-08-03T18:07:16.217Z,99579.29
2022-08-03T18:10:25.837Z,99580.07
2022-08-03T18:13:41.269Z,99584.27
2022-08-03T18:16:53.093Z,99591.90
2022-08-03T18:23:25.509Z,99591.09
2022-08-03T18:26:38.889Z,99598.43
2022-08-03T18:29:43.217Z,99604.63
2022-08-03T18:33:01.115Z,99610.13
2022-08-03T18:36:17.515Z,99612.66
2022-08-03T18:39:20.182Z,99613.23
2022-08-03T18:42:26.318Z,99617.95
2022-08-03T18:45:57.268Z,99622.71
2022-08-03T18:48:59.439Z,99628.59
2022-08-03T18:52:17.246Z,99630.19
2022-08-03T18:55:33.009Z,99631.37
2022-08-03T18:59:07.389Z,99633.92
2022-08-03T19:02:36.180Z,99632.80
2022-08-03T19:06:02.330Z,99636.77
2022-08-03T19:09:13.078Z,99637.53
2022-08-03T19:12:31.012Z,99639.68
2022-08-03T19:15:51.012Z,99640.85
2022-08-03T19:18:53.702Z,99638.94
2022-08-03T19:21:56.797Z,99639.44
2022-08-03T19:25:00.710Z,99640.23
2022-08-03T19:28:06.353Z,99639.83
2022-08-03T19:31:10.542Z,99642.10
2022-08-03T19:34:14.364Z,99648.85
2022-08-03T19:37:18.475Z,99650.50
2022-08-03T19:40:24.850Z,99648.19
2022-08-03T19:43:53.140Z,99651.52
2022-08-03T19:47:11.327Z,99654.27
2022-08-03T19:50:20.263Z,99657.66
2022-08-03T19:53:23.445Z,99661.41
2022-08-03T19:56:42.005Z,99662.39
2022-08-03T19:59:50.047Z,99658.17
2022-08-03T20:02:52.924Z,99660.83
2022-08-03T20:05:55.098Z,99662.86
2022-08-03T20:08:58.675Z,99660.89
2022-08-03T20:12:00.541Z,99662.03
2022-08-03T20:15:03.842Z,99665.84
2022-08-03T20:18:05.610Z,99662.58
2022-08-03T20:21:19.010Z,99661.64
2022-08-03T20:24:27.045Z,99656.80
2022-08-03T20:27:31.217Z,99658.05
2022-08-03T20:30:53.109Z,99657.23
2022-08-03T20:33:55.051Z,99650.49
2022-08-03T20:36:57.444Z,99651.59
2022-08-03T20:40:02.615Z,99651.58
2022-08-03T20:43:04.849Z,99651.83
2022-08-03T20:46:29.242Z,99650.08
2022-08-03T20:49:29.042Z,99647.70
2022-08-03T20:52:49.676Z,99646.80
2022-08-03T20:56:02.467Z,99647.07
2022-08-03T20:59:06.252Z,99648.91
2022-08-03T21:02:08.453Z,99653.91
2022-08-03T21:05:11.447Z,99655.85
2022-08-03T21:08:17.218Z,99659.79
2022-08-03T21:11:24.960Z,99662.59
2022-08-03T21:13:03.947Z,99591.23
2022-08-03T21:14:39.781Z,99662.29
2022-08-03T21:17:47.661Z,99661.64
2022-08-03T21:20:50.366Z,99660.64
2022-08-03T21:23:54.772Z,99665.41
2022-08-03T21:26:56.577Z,99664.75
2022-08-03T21:30:02.162Z,99665.09
2022-08-03T21:33:06.880Z,99666.52
2022-08-03T21:36:08.877Z,99668.91
2022-08-03T21:39:11.837Z,99668.27
2022-08-03T21:42:13.749Z,99673.50
2022-08-03T21:45:17.657Z,99675.29
2022-08-03T21:48:20.815Z,99672.31
2022-08-03T21:51:25.244Z,99671.44
2022-08-03T21:54:35.716Z,99672.55
2022-08-03T21:57:40.920Z,99674.04
2022-08-03T22:00:43.438Z,99675.52
2022-08-03T22:03:53.215Z,99677.29
2022-08-03T22:06:56.229Z,99677.64
2022-08-03T22:10:00.203Z,99676.59
2022-08-03T22:13:01.895Z,99678.02
2022-08-03T22:16:04.047Z,99677.48
2022-08-03T22:19:05.808Z,99680.20
2022-08-03T22:22:09.469Z,99684.79
2022-08-03T22:25:14.784Z,99683.33
2022-08-03T22:28:16.828Z,99680.99
2022-08-03T22:31:36.903Z,99682.61
2022-08-03T22:34:42.847Z,99679.98
2022-08-03T22:37:45.653Z,99681.04
2022-08-03T22:40:51.143Z,99682.04
2022-08-03T22:43:54.033Z,99673.73
2022-08-03T22:46:56.290Z,99679.48
2022-08-03T22:50:31.607Z,99678.17
2022-08-03T22:53:22.463Z,99681.55
2022-08-03T22:56:24.153Z,99680.95
2022-08-03T22:59:39.069Z,99679.74
2022-08-03T23:02:48.494Z,99679.98
2022-08-03T23:06:01.114Z,99683.07
2022-08-03T23:09:14.177Z,99679.55
2022-08-03T23:12:20.231Z,99675.63
2022-08-03T23:15:25.445Z,99677.34
2022-08-03T23:18:33.006Z,99672.61
2022-08-03T23:21:53.214Z,99674.88
2022-08-03T23:25:04.913Z,99675.33
2022-08-03T23:28:09.046Z,99669.08
2022-08-03T23:31:12.939Z,99666.48
2022-08-03T23:34:33.762Z,99667.39
2022-08-03T23:38:07.230Z,99659.30
2022-08-03T23:40:59.961Z,99663.89
2022-08-03T23:44:05.576Z,99663.13
2022-08-03T23:47:07.293Z,99667.44
2022-08-03T23:50:09.029Z,99669.23
2022-08-03T23:53:32.361Z,99669.20
2022-08-03T23:57:06.631Z,99670.05
